Time;durP1;ratioP1;P1;durP2;ratioP2;P2;SDS_P1;SDS_P2;PMS_P1;PMS_P2;Temp;Humidity;BMP_temperature;BMP_pressure;BME280_temperature;BME280_humidity;BME280_pressure;Samples;Min_cycle;Max_cycle;Signal;HPM_P1;HPM_P2
2022/07/16 00:03:34;;;;;;;1.00;0.60;;;26.70;52.40;;;;;;6125192;23;20138;-70
2022/07/16 00:06:00;;;;;;;1.13;0.80;;;26.80;52.50;;;;;;6099285;23;20046;-70
2022/07/16 00:08:25;;;;;;;2.13;0.60;;;26.70;52.50;;;;;;6127139;23;20002;-70
2022/07/16 00:10:51;;;;;;;0.80;0.70;;;26.70;52.50;;;;;;6127281;23;20006;-70
2022/07/16 00:13:17;;;;;;;1.73;0.80;;;26.70;52.50;;;;;;6101255;23;20053;-70
2022/07/16 00:15:42;;;;;;;0.95;0.60;;;26.70;52.50;;;;;;6076895;23;20006;-70
2022/07/16 00:20:52;;;;;;;1.00;0.90;;;26.70;52.60;;;;;;6126947;23;20041;-70
2022/07/16 00:23:18;;;;;;;1.00;0.50;;;26.70;52.60;;;;;;6126978;23;20006;-70
2022/07/16 00:25:43;;;;;;;0.90;0.68;;;26.60;52.50;;;;;;6126810;23;20002;-70
2022/07/16 00:28:09;;;;;;;0.85;0.68;;;26.60;52.60;;;;;;6126974;23;20021;-70
2022/07/16 00:30:34;;;;;;;0.82;0.70;;;26.60;52.60;;;;;;6126925;23;20006;-70
2022/07/16 00:33:00;;;;;;;1.23;0.60;;;26.60;52.60;;;;;;6126973;23;20316;-70
2022/07/16 00:35:27;;;;;;;0.82;0.68;;;26.60;52.70;;;;;;6101042;23;20320;-70
2022/07/16 00:37:53;;;;;;;1.00;0.70;;;26.60;52.60;;;;;;6101392;23;20002;-70
2022/07/16 00:40:19;;;;;;;1.20;0.77;;;26.60;52.70;;;;;;6101227;23;20056;-70
2022/07/16 00:42:45;;;;;;;1.27;0.80;;;26.60;52.90;;;;;;6100814;23;20005;-70
2022/07/16 00:45:10;;;;;;;1.02;0.68;;;26.60;52.70;;;;;;6101202;23;20077;-70
2022/07/16 00:47:36;;;;;;;0.90;0.70;;;26.60;52.60;;;;;;6126779;23;20074;-70
2022/07/16 00:50:01;;;;;;;1.05;0.80;;;26.50;52.50;;;;;;6100372;23;20080;-70
2022/07/16 00:52:27;;;;;;;0.73;0.70;;;26.50;52.50;;;;;;6126718;23;19994;-70
2022/07/16 00:54:53;;;;;;;0.70;0.70;;;26.50;52.50;;;;;;6126655;23;20010;-70
2022/07/16 00:57:18;;;;;;;0.60;0.57;;;26.50;52.50;;;;;;6126698;23;20037;-70
2022/07/16 00:59:44;;;;;;;0.57;0.57;;;26.50;52.50;;;;;;6101028;23;20127;-70
2022/07/16 01:02:10;;;;;;;0.63;0.60;;;26.50;52.40;;;;;;6126707;23;20008;-70
2022/07/16 01:04:35;;;;;;;1.17;0.70;;;26.50;52.60;;;;;;6100669;23;20346;-70
2022/07/16 01:07:01;;;;;;;1.08;0.70;;;26.50;52.60;;;;;;6100962;23;20009;-70
2022/07/16 01:09:27;;;;;;;1.90;0.80;;;26.50;52.60;;;;;;6100890;23;20013;-70
2022/07/16 01:11:53;;;;;;;1.90;0.70;;;26.50;52.60;;;;;;6100607;23;20013;-70
2022/07/16 01:14:19;;;;;;;1.08;0.80;;;26.50;52.70;;;;;;6101010;23;20009;-70
2022/07/16 01:16:45;;;;;;;1.25;0.70;;;26.50;52.70;;;;;;6100487;23;19998;-70
2022/07/16 01:19:11;;;;;;;0.88;0.68;;;26.50;53.60;;;;;;6100729;23;20009;-70
2022/07/16 01:21:36;;;;;;;1.10;0.77;;;26.40;53.70;;;;;;6100755;23;20346;-70
2022/07/16 01:24:02;;;;;;;0.80;0.70;;;26.50;52.70;;;;;;6100691;23;20068;-70
2022/07/16 01:26:27;;;;;;;0.70;0.70;;;26.40;52.90;;;;;;6126378;23;20390;-70
2022/07/16 01:28:53;;;;;;;0.70;0.70;;;26.40;53.00;;;;;;6126326;23;20002;-70
2022/07/16 01:31:19;;;;;;;0.77;0.68;;;26.40;52.70;;;;;;6100583;23;20002;-70
2022/07/16 01:34:24;;;;;;;1.23;0.80;;;26.40;52.90;;;;;;6100208;23;20009;-70
2022/07/16 01:36:30;;;;;;;1.90;0.60;;;26.40;53.10;;;;;;6126066;23;20077;-70
2022/07/16 01:38:55;;;;;;;0.60;0.60;;;26.40;53.10;;;;;;6100603;23;20022;-70
2022/07/16 01:41:21;;;;;;;1.02;0.40;;;26.40;53.00;;;;;;6126099;23;20371;-70
2022/07/16 01:43:47;;;;;;;0.90;0.60;;;26.30;53.00;;;;;;6126228;23;20080;-70
2022/07/16 01:46:12;;;;;;;0.82;0.77;;;26.30;52.90;;;;;;6126402;23;20073;-70
2022/07/16 01:48:38;;;;;;;0.95;0.70;;;26.30;52.80;;;;;;6125972;23;20012;-70
2022/07/16 01:51:04;;;;;;;1.20;0.82;;;26.30;52.80;;;;;;6100038;23;20104;-71
2022/07/16 01:53:29;;;;;;;1.63;0.82;;;26.30;52.80;;;;;;6126148;23;20615;-70
2022/07/16 01:55:56;;;;;;;0.77;0.70;;;26.30;52.90;;;;;;6100699;23;20002;-70
2022/07/16 01:58:21;;;;;;;1.48;0.90;;;26.30;53.00;;;;;;6126252;23;20457;-70
2022/07/16 02:00:47;;;;;;;1.17;0.60;;;26.30;52.90;;;;;;6100149;23;19998;-70
2022/07/16 02:03:13;;;;;;;0.73;0.52;;;26.30;53.00;;;;;;6100005;23;20006;-70
2022/07/16 02:05:38;;;;;;;1.55;0.68;;;26.30;54.10;;;;;;6100275;23;20443;-70
2022/07/16 02:08:04;;;;;;;0.95;0.80;;;26.30;53.10;;;;;;6100180;23;20012;-70
2022/07/16 02:10:30;;;;;;;0.73;0.60;;;26.30;53.00;;;;;;6100282;23;20002;-70
2022/07/16 02:12:56;;;;;;;1.83;0.75;;;26.30;53.00;;;;;;6100076;23;20010;-70
2022/07/16 02:15:22;;;;;;;0.85;0.70;;;26.20;53.00;;;;;;6099980;23;20346;-70
2022/07/16 02:17:47;;;;;;;0.60;0.60;;;26.20;52.90;;;;;;6099737;23;19998;-70
2022/07/16 02:20:13;;;;;;;0.90;0.73;;;26.20;53.00;;;;;;6100312;23;20009;-71
2022/07/16 02:22:39;;;;;;;1.35;0.70;;;26.20;53.00;;;;;;6099839;23;20013;-70
2022/07/16 02:25:05;;;;;;;1.50;0.75;;;26.20;52.90;;;;;;6125988;23;20013;-70
2022/07/16 02:27:31;;;;;;;1.98;0.93;;;26.20;53.00;;;;;;6125706;23;20040;-70
2022/07/16 02:29:56;;;;;;;1.20;0.70;;;26.20;53.10;;;;;;6099581;23;20002;-70
2022/07/16 02:32:22;;;;;;;0.80;0.50;;;26.20;53.10;;;;;;6125723;23;20006;-70
2022/07/16 02:34:48;;;;;;;0.75;0.70;;;26.20;53.10;;;;;;6125601;23;20013;-70
2022/07/16 02:37:14;;;;;;;0.82;0.60;;;26.20;53.20;;;;;;6125820;23;20026;-70
2022/07/16 02:39:40;;;;;;;1.23;0.60;;;26.20;53.10;;;;;;6100054;23;20024;-71
2022/07/16 02:42:05;;;;;;;0.80;0.70;;;26.20;53.10;;;;;;6099584;23;20012;-70
2022/07/16 02:44:31;;;;;;;1.77;0.80;;;26.20;53.20;;;;;;6125733;23;20006;-71
2022/07/16 02:46:57;;;;;;;0.60;0.60;;;26.20;53.20;;;;;;6125400;23;20338;-70
2022/07/16 02:49:22;;;;;;;0.80;0.50;;;26.20;53.10;;;;;;6099782;23;20077;-71
2022/07/16 02:51:48;;;;;;;0.93;0.80;;;26.20;53.00;;;;;;6125287;23;20048;-71
2022/07/16 02:54:13;;;;;;;0.50;0.50;;;26.20;53.00;;;;;;6125626;23;20108;-71
2022/07/16 02:56:39;;;;;;;0.82;0.60;;;26.20;53.20;;;;;;6125450;23;20022;-71
2022/07/16 02:59:05;;;;;;;1.70;0.73;;;26.20;53.20;;;;;;6099620;23;20033;-71
2022/07/16 03:01:30;;;;;;;0.52;0.52;;;26.20;53.20;;;;;;6099372;23;20009;-71
2022/07/16 03:03:56;;;;;;;0.88;0.60;;;26.10;53.20;;;;;;6125444;23;20010;-71
2022/07/16 03:06:21;;;;;;;0.68;0.60;;;26.10;53.20;;;;;;6125638;23;20064;-70
2022/07/16 03:08:47;;;;;;;0.60;0.50;;;26.10;53.10;;;;;;6125237;23;20446;-70
2022/07/16 03:11:13;;;;;;;4.95;0.60;;;26.10;53.20;;;;;;6125559;23;20129;-70
2022/07/16 03:13:38;;;;;;;0.85;0.63;;;26.10;53.20;;;;;;6125524;23;20006;-70
2022/07/16 03:16:04;;;;;;;0.95;0.70;;;26.10;53.30;;;;;;6099159;23;20342;-70
2022/07/16 03:18:30;;;;;;;0.50;0.50;;;26.10;53.30;;;;;;6125425;23;20049;-70
2022/07/16 03:20:56;;;;;;;0.88;0.60;;;26.10;53.30;;;;;;6125432;23;20002;-70
2022/07/16 03:23:21;;;;;;;0.88;0.45;;;26.10;53.50;;;;;;6099669;23;20010;-70
2022/07/16 03:25:47;;;;;;;1.08;0.82;;;26.10;53.30;;;;;;6099456;23;20034;-70
2022/07/16 03:28:12;;;;;;;0.60;0.60;;;26.10;53.30;;;;;;6125301;23;20455;-70
2022/07/16 03:30:38;;;;;;;1.00;0.77;;;26.10;53.30;;;;;;6125151;23;20009;-70
2022/07/16 03:33:04;;;;;;;1.95;0.55;;;26.10;53.50;;;;;;6099307;23;20009;-70
2022/07/16 03:35:29;;;;;;;0.80;0.68;;;26.00;53.40;;;;;;6125337;23;20006;-70
2022/07/16 03:40:39;;;;;;;0.98;0.60;;;26.00;53.50;;;;;;6103420;23;20460;-70
2022/07/16 03:43:05;;;;;;;0.50;0.50;;;26.00;53.50;;;;;;6125169;23;20105;-70
2022/07/16 03:45:30;;;;;;;1.95;0.55;;;26.00;53.50;;;;;;6099258;23;20011;-70
2022/07/16 03:47:57;;;;;;;0.88;0.50;;;26.00;53.60;;;;;;6099333;23;20002;-70
2022/07/16 03:50:22;;;;;;;1.10;0.68;;;26.00;53.60;;;;;;6125138;23;20006;-70
2022/07/16 03:52:48;;;;;;;0.85;0.50;;;26.00;53.60;;;;;;6124898;23;20013;-70
2022/07/16 03:55:14;;;;;;;0.90;0.60;;;26.00;53.80;;;;;;6125180;23;20438;-70
2022/07/16 03:57:40;;;;;;;0.98;0.70;;;26.00;53.60;;;;;;6099357;23;20045;-70
2022/07/16 04:00:06;;;;;;;0.60;0.60;;;26.00;53.80;;;;;;6099086;23;20002;-70
2022/07/16 04:02:31;;;;;;;0.57;0.55;;;26.00;53.80;;;;;;6099544;23;20002;-70
2022/07/16 04:04:57;;;;;;;0.60;0.50;;;26.00;53.80;;;;;;6125068;23;20346;-71
2022/07/16 04:07:23;;;;;;;0.55;0.55;;;26.00;53.80;;;;;;6099148;23;20466;-70
2022/07/16 04:09:48;;;;;;;0.90;0.50;;;26.00;53.80;;;;;;6099454;23;20006;-70
2022/07/16 04:12:14;;;;;;;0.40;0.40;;;25.90;53.80;;;;;;6099479;23;20006;-70
2022/07/16 04:14:40;;;;;;;0.57;0.50;;;25.90;53.90;;;;;;6099064;23;20006;-70
2022/07/16 04:17:05;;;;;;;0.60;0.57;;;25.90;53.90;;;;;;6124974;23;20025;-70
2022/07/16 04:19:31;;;;;;;0.57;0.50;;;25.90;53.90;;;;;;6125047;23;20002;-71
2022/07/16 04:21:57;;;;;;;0.52;0.43;;;25.90;53.80;;;;;;6099240;23;19998;-71
2022/07/16 04:24:22;;;;;;;1.02;0.60;;;25.90;53.90;;;;;;6125210;23;20006;-70
2022/07/16 04:26:48;;;;;;;0.88;0.40;;;25.90;53.90;;;;;;6124966;23;20009;-70
2022/07/16 04:29:14;;;;;;;1.05;0.60;;;25.90;53.90;;;;;;6124623;23;20342;-70
2022/07/16 04:31:40;;;;;;;0.60;0.60;;;25.90;53.90;;;;;;6125104;23;20009;-71
2022/07/16 04:34:05;;;;;;;0.50;0.50;;;25.90;53.90;;;;;;6099022;23;20055;-70
2022/07/16 04:36:31;;;;;;;0.50;0.50;;;25.90;54.10;;;;;;6099386;23;19998;-71
2022/07/16 04:38:56;;;;;;;0.45;0.45;;;25.90;53.90;;;;;;6099222;23;20028;-71
2022/07/16 04:41:22;;;;;;;0.50;0.50;;;25.90;53.90;;;;;;6099171;23;20034;-71
2022/07/16 04:43:48;;;;;;;0.50;0.50;;;25.90;53.90;;;;;;6124918;23;20014;-71
2022/07/16 04:46:13;;;;;;;0.60;0.60;;;25.90;53.90;;;;;;6125078;23;20006;-71
2022/07/16 04:48:40;;;;;;;1.10;0.60;;;25.90;53.90;;;;;;6125301;23;20006;-70
2022/07/16 04:51:06;;;;;;;0.55;0.50;;;25.90;54.00;;;;;;6124683;23;20025;-71
2022/07/16 04:53:31;;;;;;;0.50;0.50;;;25.90;54.00;;;;;;6100746;23;20010;-71
2022/07/16 04:55:57;;;;;;;0.75;0.65;;;25.90;54.00;;;;;;6126525;23;20064;-71
2022/07/16 04:58:22;;;;;;;1.17;0.60;;;25.90;54.10;;;;;;6126732;23;19994;-70
2022/07/16 05:00:48;;;;;;;0.85;0.60;;;25.80;54.00;;;;;;6126789;23;20002;-71
2022/07/16 05:03:14;;;;;;;1.05;0.60;;;25.90;54.20;;;;;;6126594;23;20028;-71
2022/07/16 05:05:39;;;;;;;0.85;0.60;;;25.90;54.10;;;;;;6126855;23;20469;-71
2022/07/16 05:08:07;;;;;;;0.50;0.50;;;25.80;54.00;;;;;;6100750;23;20005;-71
2022/07/16 05:10:32;;;;;;;1.83;0.50;;;25.80;54.10;;;;;;6100643;23;20085;-70
2022/07/16 05:12:58;;;;;;;0.50;0.50;;;25.80;54.00;;;;;;6126510;23;20029;-70
2022/07/16 05:15:24;;;;;;;0.77;0.60;;;25.80;54.20;;;;;;6126595;23;20049;-70
2022/07/16 05:17:50;;;;;;;0.82;0.50;;;25.80;54.10;;;;;;6100870;23;20424;-71
2022/07/16 05:20:15;;;;;;;0.77;0.60;;;25.80;54.20;;;;;;6126416;23;20005;-71
2022/07/16 05:22:41;;;;;;;0.77;0.60;;;25.80;54.30;;;;;;6126474;23;20033;-71
2022/07/16 05:25:08;;;;;;;0.50;0.50;;;25.80;54.20;;;;;;6100421;23;20002;-70
2022/07/16 05:27:33;;;;;;;0.68;0.50;;;25.80;54.30;;;;;;6126528;23;20021;-70
2022/07/16 05:29:59;;;;;;;1.13;0.60;;;25.80;54.20;;;;;;6100523;23;20006;-70
2022/07/16 05:32:25;;;;;;;1.15;0.47;;;25.80;54.10;;;;;;6100571;23;20002;-70
2022/07/16 05:34:50;;;;;;;0.65;0.60;;;25.70;54.00;;;;;;6126182;23;20009;-70
2022/07/16 05:37:16;;;;;;;2.35;0.50;;;25.70;54.10;;;;;;6124644;23;20009;-71
2022/07/16 05:39:41;;;;;;;0.40;0.40;;;25.80;54.30;;;;;;6099216;23;20009;-70
2022/07/16 05:42:07;;;;;;;0.75;0.55;;;25.80;54.40;;;;;;6124986;23;20002;-70
2022/07/16 05:44:33;;;;;;;0.93;0.63;;;25.80;54.50;;;;;;6125166;23;20012;-71
2022/07/16 05:46:58;;;;;;;0.40;0.40;;;25.80;54.50;;;;;;6099249;23;20006;-71
2022/07/16 05:49:24;;;;;;;0.73;0.57;;;25.80;54.60;;;;;;6125141;23;20006;-71
2022/07/16 05:51:50;;;;;;;2.10;0.40;;;25.80;54.70;;;;;;6098738;23;20014;-71
2022/07/16 05:54:15;;;;;;;0.43;0.40;;;25.80;54.70;;;;;;6124693;23;20017;-71
2022/07/16 05:56:41;;;;;;;1.83;0.50;;;25.80;54.80;;;;;;6125103;23;20008;-71
2022/07/16 05:59:06;;;;;;;3.83;0.50;;;25.80;54.90;;;;;;6125040;23;20005;-71
2022/07/16 06:01:32;;;;;;;1.92;0.60;;;25.80;54.90;;;;;;6099089;23;20008;-70
2022/07/16 06:03:58;;;;;;;4.15;0.47;;;25.80;55.00;;;;;;6098665;23;20008;-70
2022/07/16 06:06:24;;;;;;;1.23;0.50;;;25.80;55.10;;;;;;6099242;23;20545;-71
2022/07/16 06:08:49;;;;;;;0.50;0.47;;;25.80;55.10;;;;;;6124748;23;20006;-70
2022/07/16 06:11:15;;;;;;;1.58;0.50;;;25.80;55.10;;;;;;6124947;23;20009;-70
2022/07/16 06:13:41;;;;;;;1.77;0.63;;;25.80;55.20;;;;;;6124995;23;20335;-70
2022/07/16 06:16:07;;;;;;;1.00;0.50;;;25.80;55.20;;;;;;6099118;23;20061;-71
2022/07/16 06:18:34;;;;;;;0.65;0.40;;;25.80;55.30;;;;;;6124915;23;20006;-71
2022/07/16 06:20:59;;;;;;;2.15;0.60;;;25.80;55.30;;;;;;6098836;23;20518;-70
2022/07/16 06:23:25;;;;;;;0.52;0.40;;;25.80;55.30;;;;;;6098753;23;20005;-71
2022/07/16 06:25:51;;;;;;;0.60;0.30;;;25.80;55.30;;;;;;6098530;23;20006;-71
2022/07/16 06:28:16;;;;;;;0.47;0.47;;;25.80;55.50;;;;;;6124465;23;20006;-71
2022/07/16 06:30:43;;;;;;;0.45;0.45;;;25.80;55.50;;;;;;6124599;23;20359;-71
2022/07/16 06:33:09;;;;;;;0.40;0.40;;;25.80;55.50;;;;;;6124045;23;20010;-70
2022/07/16 06:35:35;;;;;;;2.33;0.50;;;25.80;55.60;;;;;;6098661;23;20597;-70
2022/07/16 06:38:02;;;;;;;0.50;0.35;;;25.80;55.60;;;;;;6124091;23;20006;-70
2022/07/16 06:40:28;;;;;;;0.40;0.40;;;25.80;55.70;;;;;;6098824;23;20037;-71
2022/07/16 06:42:53;;;;;;;2.05;0.63;;;25.80;55.60;;;;;;6098536;23;20002;-70
2022/07/16 06:45:19;;;;;;;0.68;0.50;;;25.80;55.70;;;;;;6124320;23;20005;-70
2022/07/16 06:47:44;;;;;;;0.60;0.40;;;25.80;55.70;;;;;;6124411;23;19998;-70
2022/07/16 06:50:10;;;;;;;0.40;0.40;;;25.80;55.70;;;;;;6123898;23;20652;-70
2022/07/16 06:52:36;;;;;;;0.68;0.50;;;25.80;55.80;;;;;;6123872;23;20013;-70
2022/07/16 06:55:02;;;;;;;1.20;0.55;;;25.80;55.80;;;;;;6098428;23;20057;-70
2022/07/16 06:57:28;;;;;;;0.88;0.50;;;25.80;55.80;;;;;;6098611;23;20053;-70
2022/07/16 06:59:53;;;;;;;0.40;0.30;;;25.80;55.80;;;;;;6124094;23;20014;-70
2022/07/16 07:02:19;;;;;;;0.47;0.43;;;25.80;55.90;;;;;;6124213;23;20002;-70
2022/07/16 07:04:45;;;;;;;1.33;0.50;;;25.80;56.00;;;;;;6124176;23;20006;-71
2022/07/16 07:07:10;;;;;;;2.00;0.38;;;25.80;55.90;;;;;;6123803;23;20009;-71
2022/07/16 07:09:36;;;;;;;0.95;0.50;;;25.80;55.90;;;;;;6124252;23;20002;-70
2022/07/16 07:12:01;;;;;;;2.47;0.50;;;25.80;56.00;;;;;;6123982;23;20009;-71
2022/07/16 07:14:27;;;;;;;1.17;0.60;;;25.80;56.00;;;;;;6123860;23;20013;-70
2022/07/16 07:16:53;;;;;;;0.40;0.40;;;25.80;56.10;;;;;;6124432;23;20002;-70
2022/07/16 07:19:18;;;;;;;2.72;0.50;;;25.80;56.10;;;;;;6123916;23;20082;-70
2022/07/16 07:21:44;;;;;;;1.33;0.50;;;25.80;56.10;;;;;;6123908;23;20002;-70
2022/07/16 07:24:09;;;;;;;0.25;0.25;;;25.80;56.10;;;;;;6123910;23;20013;-70
2022/07/16 07:26:35;;;;;;;0.40;0.40;;;25.90;56.30;;;;;;6123997;23;20332;-70
2022/07/16 07:29:01;;;;;;;0.50;0.40;;;25.90;56.20;;;;;;6124398;23;20465;-70
2022/07/16 07:31:26;;;;;;;1.10;0.40;;;25.80;56.20;;;;;;6098610;23;20006;-70
2022/07/16 07:33:52;;;;;;;1.10;0.50;;;25.80;56.20;;;;;;6124085;23;20056;-71
2022/07/16 07:36:19;;;;;;;1.00;0.40;;;25.80;56.30;;;;;;6124108;23;20002;-70
2022/07/16 07:38:44;;;;;;;1.23;0.50;;;25.80;56.30;;;;;;6124064;23;20009;-70
2022/07/16 07:41:10;;;;;;;1.65;0.45;;;25.90;56.30;;;;;;6098044;23;19998;-70
2022/07/16 07:43:36;;;;;;;0.50;0.50;;;25.80;56.30;;;;;;6124179;23;20006;-70
2022/07/16 07:46:01;;;;;;;2.28;0.45;;;25.80;56.30;;;;;;6073983;23;20002;-70
2022/07/16 07:48:27;;;;;;;2.00;0.50;;;25.90;56.40;;;;;;6124209;23;20002;-70
2022/07/16 07:50:52;;;;;;;0.80;0.55;;;25.90;56.40;;;;;;6123758;23;20018;-70
2022/07/16 07:53:18;;;;;;;0.82;0.40;;;25.80;56.40;;;;;;6123863;23;20010;-70
2022/07/16 07:55:44;;;;;;;1.58;0.50;;;25.80;56.50;;;;;;6098417;23;20342;-70
2022/07/16 07:58:09;;;;;;;0.40;0.40;;;25.90;56.50;;;;;;6124156;23;20005;-70
2022/07/16 08:00:35;;;;;;;0.70;0.40;;;25.80;56.40;;;;;;6124139;23;20009;-70
2022/07/16 08:03:01;;;;;;;2.17;0.60;;;25.80;56.40;;;;;;6098437;23;19998;-70
2022/07/16 08:05:26;;;;;;;0.52;0.30;;;25.90;56.60;;;;;;6123831;23;20499;-70
2022/07/16 08:07:52;;;;;;;0.88;0.60;;;25.80;56.50;;;;;;6124018;23;20052;-70
2022/07/16 08:10:17;;;;;;;0.45;0.40;;;25.90;56.60;;;;;;6098170;23;20049;-70
2022/07/16 08:12:43;;;;;;;0.65;0.40;;;25.90;56.60;;;;;;6097790;23;20033;-71
2022/07/16 08:15:09;;;;;;;0.20;0.20;;;25.80;56.60;;;;;;6123871;23;20053;-70
2022/07/16 08:17:35;;;;;;;0.63;0.60;;;25.80;56.60;;;;;;6124558;23;20084;-71
2022/07/16 08:20:01;;;;;;;1.45;0.30;;;25.80;56.60;;;;;;6098140;23;20006;-71
2022/07/16 08:22:27;;;;;;;0.80;0.80;;;25.90;56.70;;;;;;6123981;23;20064;-70
2022/07/16 08:27:37;;;;;;;1.48;0.35;;;25.90;56.70;;;;;;6124968;23;20016;-69
2022/07/16 08:30:03;;;;;;;0.38;0.32;;;25.90;56.60;;;;;;6125977;23;20006;-69
2022/07/16 08:32:28;;;;;;;0.28;0.28;;;25.80;55.30;;;;;;6099706;23;20066;-69
2022/07/16 08:34:54;;;;;;;0.75;0.28;;;25.80;54.80;;;;;;6125005;23;20010;-71
2022/07/16 08:37:32;;;;;;;0.57;0.40;;;25.90;54.70;;;;;;6099935;23;20076;-72
2022/07/16 08:39:58;;;;;;;0.40;0.40;;;25.90;54.50;;;;;;6126634;23;20002;-71
2022/07/16 08:42:23;;;;;;;0.30;0.30;;;26.00;54.30;;;;;;6102074;23;20464;-72
2022/07/16 08:44:49;;;;;;;2.95;0.40;;;26.00;54.10;;;;;;6101809;23;20390;-71
2022/07/16 08:47:15;;;;;;;0.63;0.55;;;26.00;54.00;;;;;;6101894;23;20399;-72
2022/07/16 08:49:42;;;;;;;0.40;0.40;;;26.10;53.90;;;;;;6101887;23;20005;-72
2022/07/16 08:52:08;;;;;;;0.40;0.40;;;26.10;53.80;;;;;;6101966;23;20014;-72
2022/07/16 08:54:34;;;;;;;0.30;0.30;;;26.20;53.80;;;;;;6127433;23;20010;-72
2022/07/16 08:56:59;;;;;;;0.35;0.35;;;26.20;53.70;;;;;;6078041;23;20006;-72
2022/07/16 08:59:28;;;;;;;0.45;0.30;;;26.20;53.50;;;;;;6127652;23;20034;-72
2022/07/16 09:01:54;;;;;;;0.50;0.40;;;26.20;53.40;;;;;;6101675;23;20005;-72
2022/07/16 09:04:19;;;;;;;0.52;0.40;;;26.30;53.50;;;;;;6101616;23;20094;-72
2022/07/16 09:06:46;;;;;;;0.40;0.40;;;26.30;53.20;;;;;;6101659;23;20009;-72
2022/07/16 09:09:12;;;;;;;0.28;0.28;;;26.30;53.10;;;;;;6127392;23;20073;-71
2022/07/16 09:11:38;;;;;;;0.30;0.30;;;26.40;53.00;;;;;;6127420;23;20081;-72
2022/07/16 09:14:08;;;;;;;0.70;0.50;;;26.40;53.00;;;;;;6127319;23;20209;-71
2022/07/16 09:16:38;;;;;;;0.82;0.45;;;26.40;52.80;;;;;;6101776;23;19998;-72
2022/07/16 09:19:14;;;;;;;0.65;0.45;;;26.40;52.70;;;;;;6100966;23;20002;-71
2022/07/16 09:22:01;;;;;;;0.65;0.50;;;26.50;52.70;;;;;;6101474;23;20025;-71
2022/07/16 09:24:40;;;;;;;0.47;0.30;;;26.50;52.80;;;;;;6127282;23;20002;-72
2022/07/16 09:27:25;;;;;;;0.40;0.30;;;26.50;52.80;;;;;;6127411;23;20002;-72
2022/07/16 09:29:51;;;;;;;0.40;0.40;;;26.60;52.70;;;;;;6079176;23;20044;-72
2022/07/16 09:32:27;;;;;;;0.30;0.30;;;26.60;52.50;;;;;;6126837;23;20029;-72
2022/07/16 09:35:14;;;;;;;0.52;0.43;;;26.60;52.50;;;;;;6127206;23;20002;-71
2022/07/16 09:37:56;;;;;;;1.10;0.30;;;26.60;52.70;;;;;;6127192;23;20057;-68
2022/07/16 09:40:35;;;;;;;0.95;0.47;;;26.60;52.50;;;;;;6101379;23;20419;-70
2022/07/16 09:43:02;;;;;;;1.08;0.43;;;26.60;52.40;;;;;;6126672;23;20418;-70
2022/07/16 09:45:28;;;;;;;0.40;0.40;;;26.60;52.50;;;;;;6101417;23;20056;-70
2022/07/16 09:47:53;;;;;;;0.30;0.30;;;26.70;52.40;;;;;;6101029;23;20360;-69
2022/07/16 09:50:19;;;;;;;0.93;0.40;;;26.70;52.50;;;;;;6126728;23;20006;-70
2022/07/16 09:52:45;;;;;;;0.30;0.30;;;26.70;52.50;;;;;;6101332;23;20006;-70
2022/07/16 09:55:11;;;;;;;0.30;0.30;;;26.70;52.40;;;;;;6126940;23;20017;-69
2022/07/16 09:57:36;;;;;;;0.55;0.45;;;26.70;52.30;;;;;;6101088;23;20032;-69
2022/07/16 10:00:03;;;;;;;0.40;0.40;;;26.70;52.40;;;;;;6101060;23;20053;-69
2022/07/16 10:02:29;;;;;;;0.20;0.20;;;26.70;52.30;;;;;;6126617;23;20345;-70
2022/07/16 10:04:55;;;;;;;0.30;0.30;;;26.80;52.30;;;;;;6101298;23;20013;-69
2022/07/16 10:07:21;;;;;;;0.40;0.40;;;26.70;52.40;;;;;;6126975;23;20006;-69
2022/07/16 10:09:46;;;;;;;0.30;0.30;;;26.80;52.40;;;;;;6101191;23;20029;-68
2022/07/16 10:12:14;;;;;;;0.30;0.28;;;26.80;52.40;;;;;;6100896;23;20324;-68
2022/07/16 10:14:45;;;;;;;0.60;0.43;;;26.80;52.30;;;;;;6101302;23;20005;-68
2022/07/16 10:17:41;;;;;;;0.30;0.30;;;26.80;52.30;;;;;;6100959;23;20006;-68
2022/07/16 10:20:09;;;;;;;0.50;0.40;;;26.80;52.30;;;;;;6088949;23;20077;-68
2022/07/16 10:22:45;;;;;;;0.45;0.45;;;26.80;52.20;;;;;;6126658;23;20002;-69
2022/07/16 10:25:13;;;;;;;0.65;0.40;;;26.90;52.30;;;;;;6100930;23;20006;-69
2022/07/16 10:27:39;;;;;;;0.45;0.40;;;26.90;52.40;;;;;;6101256;23;20002;-70
2022/07/16 10:30:23;;;;;;;0.45;0.40;;;26.90;52.30;;;;;;6126259;23;20009;-71
2022/07/16 10:33:09;;;;;;;0.57;0.45;;;26.90;52.30;;;;;;6100719;23;20331;-70
2022/07/16 10:35:47;;;;;;;0.40;0.40;;;26.90;52.20;;;;;;6126499;23;20013;-70
2022/07/16 10:38:22;;;;;;;0.88;0.32;;;26.90;52.40;;;;;;6126537;23;20128;-71
2022/07/16 10:41:14;;;;;;;1.15;0.40;;;26.90;52.40;;;;;;6100978;23;20002;-71
2022/07/16 10:43:40;;;;;;;0.38;0.32;;;26.90;52.10;;;;;;6103020;23;20006;-71
2022/07/16 10:46:07;;;;;;;0.30;0.30;;;26.90;52.20;;;;;;6100024;23;20016;-70
2022/07/16 10:48:39;;;;;;;1.02;0.30;;;26.90;52.30;;;;;;6100533;23;20518;-70
2022/07/16 10:51:14;;;;;;;0.40;0.40;;;26.90;52.20;;;;;;6125836;23;20041;-70
2022/07/16 10:54:01;;;;;;;0.38;0.38;;;27.00;52.30;;;;;;6100603;23;20006;-70
2022/07/16 10:56:32;;;;;;;0.40;0.40;;;27.00;52.30;;;;;;6126300;23;20048;-70
2022/07/16 10:58:58;;;;;;;0.40;0.30;;;27.00;52.10;;;;;;6124622;23;20002;-70
2022/07/16 11:01:24;;;;;;;0.30;0.30;;;27.00;52.00;;;;;;6098486;23;20253;-71
2022/07/16 11:03:53;;;;;;;0.30;0.30;;;26.90;52.20;;;;;;6098795;23;20013;-72
2022/07/16 11:06:20;;;;;;;0.28;0.28;;;27.00;52.50;;;;;;6098617;23;20006;-73
2022/07/16 11:08:48;;;;;;;0.35;0.20;;;27.00;52.40;;;;;;6074928;23;20050;-70
2022/07/16 11:11:14;;;;;;;0.50;0.40;;;27.00;52.60;;;;;;6098574;23;20013;-72
2022/07/16 11:13:40;;;;;;;0.38;0.38;;;27.00;52.60;;;;;;6098450;23;20056;-70
2022/07/16 11:16:09;;;;;;;0.40;0.40;;;27.00;52.40;;;;;;6098852;23;19998;-70
2022/07/16 11:18:38;;;;;;;0.40;0.40;;;27.10;52.20;;;;;;6098616;23;20010;-70
2022/07/16 11:21:05;;;;;;;0.20;0.20;;;27.10;52.30;;;;;;6098808;23;20057;-69
2022/07/16 11:23:45;;;;;;;0.40;0.40;;;27.10;52.20;;;;;;6124352;23;20074;-64
2022/07/16 11:26:11;;;;;;;0.40;0.40;;;27.10;52.30;;;;;;6098662;23;20064;-64
2022/07/16 11:28:37;;;;;;;0.30;0.30;;;27.00;52.60;;;;;;6122109;23;20006;-64
2022/07/16 11:31:05;;;;;;;0.40;0.40;;;27.00;52.80;;;;;;6098132;23;20351;-64
2022/07/16 11:33:32;;;;;;;0.40;0.40;;;26.90;52.70;;;;;;6123695;23;20442;-64
2022/07/16 11:36:08;;;;;;;0.30;0.30;;;26.90;52.80;;;;;;6124104;23;20016;-64
2022/07/16 11:38:34;;;;;;;0.28;0.28;;;26.90;52.90;;;;;;6123997;23;20002;-64
2022/07/16 11:41:00;;;;;;;0.88;0.55;;;26.90;53.00;;;;;;6124077;23;20006;-64
2022/07/16 11:43:29;;;;;;;0.32;0.32;;;26.80;52.90;;;;;;6123621;23;20067;-64
2022/07/16 11:45:55;;;;;;;0.30;0.30;;;26.80;53.00;;;;;;6098168;23;20010;-64
2022/07/16 11:48:20;;;;;;;0.30;0.30;;;26.80;53.10;;;;;;6123948;23;20037;-64
2022/07/16 11:50:46;;;;;;;0.25;0.25;;;26.80;53.20;;;;;;6123659;23;20064;-64
2022/07/16 11:53:12;;;;;;;0.45;0.40;;;26.80;53.20;;;;;;6123904;23;20013;-64
2022/07/16 11:55:44;;;;;;;0.30;0.30;;;26.80;53.20;;;;;;6123854;23;20346;-64
2022/07/16 11:58:10;;;;;;;;;;;26.80;53.20;;;;;;6123967;23;20005;-64
2022/07/16 12:00:43;;;;;;;0.30;0.30;;;26.70;53.30;;;;;;6123840;23;19901;-64
2022/07/16 12:03:09;;;;;;;0.40;0.40;;;26.70;53.20;;;;;;6125278;23;20006;-64
2022/07/16 12:05:35;;;;;;;0.28;0.28;;;26.70;53.20;;;;;;6125923;23;20006;-64
2022/07/16 12:08:03;;;;;;;0.35;0.25;;;26.70;53.20;;;;;;6125706;23;20450;-64
2022/07/16 12:10:29;;;;;;;0.52;0.30;;;26.70;53.20;;;;;;6125629;23;20005;-64
2022/07/16 12:13:02;;;;;;;0.55;0.43;;;26.70;53.40;;;;;;6125658;23;20060;-64
2022/07/16 12:15:28;;;;;;;0.40;0.30;;;26.70;53.20;;;;;;6125673;23;20006;-64
2022/07/16 12:17:53;;;;;;;0.30;0.30;;;26.70;53.40;;;;;;6099921;23;20403;-64
2022/07/16 12:20:22;;;;;;;0.38;0.38;;;26.70;53.30;;;;;;6125804;23;20064;-64
2022/07/16 12:22:58;;;;;;;0.30;0.30;;;26.70;53.40;;;;;;6125549;23;20013;-64
2022/07/16 12:25:34;;;;;;;0.65;0.40;;;26.60;53.30;;;;;;6125313;23;20009;-64
2022/07/16 12:28:06;;;;;;;0.40;0.40;;;26.70;53.40;;;;;;6125886;23;20013;-64
2022/07/16 12:30:36;;;;;;;;;;;26.70;53.30;;;;;;6101393;23;20394;-64
2022/07/16 12:33:06;;;;;;;4.57;0.98;;;26.60;53.40;;;;;;6125642;23;19900;-65
2022/07/16 12:35:45;;;;;;;4.90;1.70;;;26.70;53.50;;;;;;6099914;23;20006;-69
2022/07/16 12:38:37;;;;;;;9.15;1.60;;;26.80;54.10;;;;;;6125622;23;20443;-69
2022/07/16 12:41:03;;;;;;;4.70;1.38;;;26.80;53.50;;;;;;6126744;23;20080;-69
2022/07/16 12:43:28;;;;;;;7.28;1.23;;;26.90;53.40;;;;;;6126640;23;20006;-69
2022/07/16 12:45:54;;;;;;;4.03;1.50;;;26.90;53.30;;;;;;6126683;23;20009;-69
2022/07/16 12:48:20;;;;;;;5.00;1.73;;;26.90;53.40;;;;;;6101255;23;20013;-69
2022/07/16 12:50:45;;;;;;;3.53;1.50;;;26.90;53.50;;;;;;6100547;23;20074;-69
2022/07/16 12:53:11;;;;;;;6.93;1.88;;;26.90;53.50;;;;;;6126747;23;20069;-69
2022/07/16 13:01:05;;;;;;;4.20;1.40;;;27.00;53.50;;;;;;6126831;23;20017;-69
2022/07/16 13:03:30;;;;;;;4.82;1.63;;;27.00;53.30;;;;;;6100949;23;20006;-69